createdAt,value
2018-08-07T00:02:25.368Z,20.63
2018-08-07T00:04:53.840Z,20.60
2018-08-07T00:07:22.372Z,20.38
2018-08-07T00:09:51.060Z,20.43
2018-08-07T00:12:19.591Z,20.47
2018-08-07T00:14:48.028Z,20.27
2018-08-07T00:17:16.537Z,20.37
2018-08-07T00:19:45.004Z,20.36
2018-08-07T00:22:13.675Z,20.57
2018-08-07T00:24:42.107Z,20.52
2018-08-07T00:27:10.579Z,20.75
2018-08-07T00:29:39.420Z,20.49
2018-08-07T00:32:07.919Z,20.27
2018-08-07T00:34:36.331Z,20.25
2018-08-07T00:37:05.252Z,20.29
2018-08-07T00:39:33.667Z,20.35
2018-08-07T00:42:02.234Z,20.24
2018-08-07T00:44:31.060Z,20.22
2018-08-07T00:46:59.538Z,20.20
2018-08-07T00:49:27.948Z,20.10
2018-08-07T00:51:56.407Z,20.19
2018-08-07T00:54:24.816Z,20.24
2018-08-07T00:56:53.241Z,20.27
2018-08-07T00:59:21.767Z,20.19
2018-08-07T01:01:50.202Z,20.24
2018-08-07T01:04:18.839Z,20.47
2018-08-07T01:06:48.007Z,20.35
2018-08-07T01:09:16.443Z,20.31
2018-08-07T01:11:44.943Z,20.15
2018-08-07T01:14:13.691Z,19.91
2018-08-07T01:16:42.155Z,19.89
2018-08-07T01:19:10.566Z,19.94
2018-08-07T01:21:39.502Z,19.93
2018-08-07T01:24:07.968Z,19.84
2018-08-07T01:26:36.411Z,19.88
2018-08-07T01:29:05.075Z,19.80
2018-08-07T01:31:33.576Z,19.82
2018-08-07T01:34:02.052Z,19.65
2018-08-07T01:36:30.656Z,19.64
2018-08-07T01:38:59.226Z,19.57
2018-08-07T01:41:27.678Z,19.75
2018-08-07T01:43:56.090Z,19.67
2018-08-07T01:46:24.571Z,19.53
2018-08-07T01:48:53.011Z,19.43
2018-08-07T01:51:21.723Z,19.39
2018-08-07T01:53:50.147Z,19.35
2018-08-07T01:56:18.622Z,19.31
2018-08-07T01:58:47.195Z,19.21
2018-08-07T02:01:15.615Z,19.30
2018-08-07T02:03:44.100Z,19.29
2018-08-07T02:06:12.571Z,19.33
2018-08-07T02:08:41.025Z,19.26
2018-08-07T02:11:09.533Z,19.12
2018-08-07T02:13:38.371Z,19.19
2018-08-07T02:16:07.011Z,19.10
2018-08-07T02:18:35.467Z,19.32
2018-08-07T02:21:04.263Z,19.32
2018-08-07T02:23:32.719Z,19.10
2018-08-07T02:26:01.111Z,19.19
2018-08-07T02:28:29.631Z,19.10
2018-08-07T02:30:58.156Z,19.06
2018-08-07T02:33:26.515Z,19.20
2018-08-07T02:35:55.282Z,19.05
2018-08-07T02:38:23.849Z,18.64
2018-08-07T02:40:52.340Z,18.53
2018-08-07T02:43:20.892Z,18.13
2018-08-07T02:45:49.335Z,18.32
2018-08-07T02:48:17.819Z,18.57
2018-08-07T02:50:46.595Z,18.83
2018-08-07T02:53:15.055Z,18.78
2018-08-07T02:55:43.524Z,18.91
2018-08-07T02:58:12.055Z,19.08
2018-08-07T03:00:44.434Z,19.15
2018-08-07T03:03:12.923Z,19.10
2018-08-07T03:05:41.383Z,19.13
2018-08-07T03:08:09.791Z,18.47
2018-08-07T03:10:38.548Z,18.70
2018-08-07T03:13:07.027Z,18.93
2018-08-07T03:15:35.619Z,18.82
2018-08-07T03:18:04.947Z,18.95
2018-08-07T03:20:33.399Z,19.14
2018-08-07T03:23:01.867Z,19.21
2018-08-07T03:25:30.383Z,19.12
2018-08-07T03:27:58.877Z,19.22
2018-08-07T03:30:27.383Z,19.45
2018-08-07T03:32:55.871Z,19.41
2018-08-07T03:35:24.344Z,19.19
2018-08-07T03:37:52.782Z,19.06
2018-08-07T03:40:21.507Z,18.98
2018-08-07T03:42:49.930Z,18.91
2018-08-07T03:45:19.643Z,19.17
2018-08-07T03:47:48.719Z,19.00
2018-08-07T03:50:17.103Z,19.04
2018-08-07T03:52:45.605Z,19.01
2018-08-07T03:55:16.751Z,18.84
2018-08-07T03:57:45.855Z,18.83
2018-08-07T04:00:20.377Z,18.80
2018-08-07T04:02:48.888Z,18.76
2018-08-07T04:05:17.550Z,18.39
2018-08-07T04:07:46.072Z,18.63
2018-08-07T04:10:16.167Z,18.70
2018-08-07T04:12:44.647Z,19.01
2018-08-07T04:15:16.883Z,18.69
2018-08-07T04:17:45.535Z,18.53
2018-08-07T04:20:16.111Z,18.39
2018-08-07T04:22:44.711Z,18.77
2018-08-07T04:25:13.208Z,18.67
2018-08-07T04:27:41.863Z,19.01
2018-08-07T04:30:12.693Z,18.94
2018-08-07T04:32:41.880Z,18.97
2018-08-07T04:35:10.455Z,19.05
2018-08-07T04:37:38.943Z,19.10
2018-08-07T04:40:09.098Z,19.43
2018-08-07T04:42:38.596Z,19.42
2018-08-07T04:45:09.467Z,19.32
2018-08-07T04:47:37.951Z,19.19
2018-08-07T04:50:06.976Z,19.30
2018-08-07T04:52:35.678Z,19.35
2018-08-07T04:55:04.251Z,19.35
2018-08-07T04:57:32.739Z,20.12
2018-08-07T05:00:01.207Z,20.57
2018-08-07T05:02:29.671Z,20.84
2018-08-07T05:04:58.089Z,21.19
2018-08-07T05:07:26.593Z,21.01
2018-08-07T05:09:55.105Z,21.31
2018-08-07T05:12:23.762Z,21.46
2018-08-07T05:14:52.167Z,20.98
2018-08-07T05:17:20.776Z,21.29
2018-08-07T05:19:49.537Z,21.48
2018-08-07T05:22:18.003Z,21.89
2018-08-07T05:24:46.447Z,22.12
2018-08-07T05:27:14.956Z,21.92
2018-08-07T05:29:43.474Z,21.89
2018-08-07T05:32:11.893Z,22.09
2018-08-07T05:34:40.336Z,22.18
2018-08-07T05:37:08.860Z,22.16
2018-08-07T05:39:37.258Z,22.43
2018-08-07T05:42:05.663Z,22.81
2018-08-07T05:44:34.076Z,23.12
2018-08-07T05:47:02.507Z,23.15
2018-08-07T05:49:30.947Z,22.97
2018-08-07T05:51:59.743Z,22.51
2018-08-07T05:54:28.255Z,22.53
2018-08-07T05:56:56.896Z,22.49
2018-08-07T05:59:25.412Z,22.87
2018-08-07T06:01:54.119Z,23.13
2018-08-07T06:04:22.549Z,23.25
2018-08-07T06:06:51.627Z,23.05
2018-08-07T06:09:19.993Z,23.39
2018-08-07T06:11:48.464Z,23.49
2018-08-07T06:14:16.976Z,23.42
2018-08-07T06:16:45.406Z,22.86
2018-08-07T06:19:13.985Z,23.29
2018-08-07T06:21:42.479Z,23.77
2018-08-07T06:24:10.928Z,23.86
2018-08-07T06:26:39.463Z,24.06
2018-08-07T06:29:08.187Z,24.35
2018-08-07T06:31:36.711Z,24.20
2018-08-07T06:34:05.431Z,24.41
2018-08-07T06:36:33.887Z,24.33
2018-08-07T06:39:02.459Z,24.41
2018-08-07T06:41:31.008Z,25.32
2018-08-07T06:43:59.658Z,24.71
2018-08-07T06:46:28.248Z,24.34
2018-08-07T06:48:56.792Z,24.30
2018-08-07T06:51:25.327Z,23.97
2018-08-07T06:53:53.808Z,24.07
2018-08-07T06:56:22.259Z,24.18
2018-08-07T06:58:51.021Z,24.28
2018-08-07T07:01:19.530Z,24.44
2018-08-07T07:03:48.044Z,24.55
2018-08-07T07:06:17.021Z,24.88
2018-08-07T07:08:45.547Z,24.88
2018-08-07T07:11:14.015Z,25.38
2018-08-07T07:13:42.554Z,25.25
2018-08-07T07:16:11.132Z,25.17
2018-08-07T07:18:40.352Z,25.42
2018-08-07T07:21:09.127Z,25.57
2018-08-07T07:23:37.623Z,25.70
2018-08-07T07:26:06.183Z,25.92
2018-08-07T07:28:34.695Z,26.10
2018-08-07T07:31:03.114Z,25.76
2018-08-07T07:33:31.598Z,26.15
2018-08-07T07:36:00.330Z,26.05
2018-08-07T07:38:28.787Z,26.10
2018-08-07T07:40:57.316Z,26.09
2018-08-07T07:43:25.834Z,26.51
2018-08-07T07:45:54.304Z,26.79
2018-08-07T07:48:22.739Z,26.49
2018-08-07T07:50:51.439Z,26.49
2018-08-07T07:53:19.978Z,26.60
2018-08-07T07:55:48.600Z,26.86
2018-08-07T07:58:17.514Z,27.32
2018-08-07T08:00:45.967Z,27.10
2018-08-07T08:03:14.413Z,27.28
2018-08-07T08:05:43.011Z,27.71
2018-08-07T08:08:11.411Z,27.75
2018-08-07T08:10:39.884Z,27.65
2018-08-07T08:13:08.395Z,27.80
2018-08-07T08:15:36.835Z,28.50
2018-08-07T08:18:05.667Z,28.53
2018-08-07T08:20:34.207Z,28.27
2018-08-07T08:23:02.747Z,28.30
2018-08-07T08:25:31.135Z,28.42
2018-08-07T08:27:59.891Z,29.03
2018-08-07T08:30:28.321Z,28.95
2018-08-07T08:32:56.824Z,29.06
2018-08-07T08:35:25.349Z,29.12
2018-08-07T08:37:53.790Z,29.46
2018-08-07T08:40:23.875Z,29.23
2018-08-07T08:42:52.697Z,29.41
2018-08-07T08:45:23.779Z,29.55
2018-08-07T08:47:55.132Z,29.74
2018-08-07T08:50:23.903Z,29.83
2018-08-07T08:52:52.451Z,29.96
2018-08-07T08:55:20.943Z,30.61
2018-08-07T08:57:49.417Z,30.66
2018-08-07T09:00:23.607Z,30.17
2018-08-07T09:02:52.363Z,30.58
2018-08-07T09:05:20.831Z,31.02
2018-08-07T09:07:49.383Z,31.08
2018-08-07T09:10:22.185Z,31.15
2018-08-07T09:12:51.398Z,31.19
2018-08-07T09:15:19.844Z,31.07
2018-08-07T09:17:48.595Z,31.75
2018-08-07T09:20:20.775Z,31.83
2018-08-07T09:22:49.352Z,31.80
2018-08-07T09:25:18.625Z,32.08
2018-08-07T09:27:47.363Z,31.96
2018-08-07T09:30:19.231Z,31.60
2018-08-07T09:32:48.805Z,31.61
2018-08-07T09:35:18.567Z,31.74
2018-08-07T09:37:47.107Z,32.10
2018-08-07T09:40:17.839Z,32.35
2018-08-07T09:42:47.599Z,32.80
2018-08-07T09:45:18.986Z,33.17
2018-08-07T09:47:47.691Z,32.90
2018-08-07T09:50:18.017Z,32.98
2018-08-07T09:52:47.143Z,33.61
2018-08-07T09:55:15.630Z,33.33
2018-08-07T09:57:44.199Z,33.57
2018-08-07T10:00:20.452Z,33.56
2018-08-07T10:02:51.191Z,33.37
2018-08-07T10:05:20.811Z,33.61
2018-08-07T10:07:49.783Z,33.84
2018-08-07T10:10:18.823Z,33.69
2018-08-07T10:12:47.551Z,33.77
2018-08-07T10:15:16.487Z,33.97
2018-08-07T10:17:45.090Z,34.24
2018-08-07T10:20:14.287Z,34.19
2018-08-07T10:22:43.403Z,34.14
2018-08-07T10:25:13.858Z,34.32
2018-08-07T10:27:44.399Z,34.52
2018-08-07T10:30:18.443Z,34.30
2018-08-07T10:32:47.503Z,34.21
2018-08-07T10:35:16.260Z,34.43
2018-08-07T10:37:45.584Z,34.60
2018-08-07T10:40:15.855Z,34.65
2018-08-07T10:42:44.367Z,34.27
2018-08-07T10:45:15.780Z,34.91
2018-08-07T10:47:44.246Z,34.65
2018-08-07T10:50:19.222Z,35.02
2018-08-07T10:52:48.482Z,35.38
2018-08-07T10:55:16.966Z,35.47
2018-08-07T10:57:47.051Z,35.92
2018-08-07T11:00:19.931Z,35.49
2018-08-07T11:02:49.718Z,35.83
2018-08-07T11:05:18.845Z,36.13
2018-08-07T11:07:47.346Z,35.54
2018-08-07T11:10:16.571Z,35.00
2018-08-07T11:12:45.052Z,34.84
2018-08-07T11:15:19.373Z,34.54
2018-08-07T11:17:48.996Z,34.92
2018-08-07T11:20:17.898Z,34.93
2018-08-07T11:22:48.068Z,34.98
2018-08-07T11:25:17.719Z,35.19
2018-08-07T11:27:46.243Z,35.27
2018-08-07T11:30:17.146Z,35.52
2018-08-07T11:32:45.959Z,35.27
2018-08-07T11:35:14.922Z,35.22
2018-08-07T11:37:44.881Z,35.42
2018-08-07T11:40:15.437Z,35.09
2018-08-07T11:42:45.044Z,35.14
2018-08-07T11:45:15.224Z,35.14
2018-08-07T11:47:48.082Z,35.29
2018-08-07T11:50:19.198Z,35.57
2018-08-07T11:52:47.715Z,35.50
2018-08-07T11:55:17.274Z,35.53
2018-08-07T11:57:47.880Z,35.58
2018-08-07T12:00:19.899Z,35.86
2018-08-07T12:02:48.804Z,35.63
2018-08-07T12:05:17.491Z,35.75
2018-08-07T12:07:46.104Z,35.57
2018-08-07T12:10:16.439Z,35.41
2018-08-07T12:12:45.350Z,35.20
2018-08-07T12:15:16.299Z,35.68
2018-08-07T12:17:45.056Z,36.03
2018-08-07T12:20:13.555Z,36.18
2018-08-07T12:22:42.143Z,36.29
2018-08-07T12:25:12.324Z,35.90
2018-08-07T12:27:40.860Z,35.88
2018-08-07T12:30:14.035Z,36.28
2018-08-07T12:32:42.530Z,36.20
2018-08-07T12:35:11.109Z,36.35
2018-08-07T12:37:39.963Z,36.62
2018-08-07T12:40:11.227Z,36.36
2018-08-07T12:42:39.822Z,36.59
2018-08-07T12:45:09.015Z,36.48
2018-08-07T12:47:37.843Z,36.45
2018-08-07T12:50:07.864Z,36.30
2018-08-07T12:52:36.528Z,36.11
2018-08-07T12:55:05.287Z,36.00
2018-08-07T12:57:34.154Z,35.97
2018-08-07T13:00:03.200Z,35.66
2018-08-07T13:02:31.711Z,35.97
2018-08-07T13:05:00.347Z,36.16
2018-08-07T13:07:28.820Z,36.26
2018-08-07T13:09:57.388Z,36.31
2018-08-07T13:12:26.139Z,36.35
2018-08-07T13:14:54.579Z,36.44
2018-08-07T13:17:23.133Z,36.76
2018-08-07T13:19:51.663Z,36.59
2018-08-07T13:22:20.316Z,36.59
2018-08-07T13:24:49.065Z,36.87
2018-08-07T13:27:17.729Z,37.03
2018-08-07T13:29:46.307Z,37.20
2018-08-07T13:32:14.838Z,37.33
2018-08-07T13:34:43.392Z,37.26
2018-08-07T13:37:11.939Z,37.12
2018-08-07T13:39:41.756Z,36.39
2018-08-07T13:42:10.594Z,36.12
2018-08-07T13:44:38.995Z,36.34
2018-08-07T13:47:07.919Z,36.62
2018-08-07T13:49:36.449Z,36.59
2018-08-07T13:52:04.986Z,36.65
2018-08-07T13:54:33.575Z,36.29
2018-08-07T13:57:02.478Z,36.13
2018-08-07T13:59:30.946Z,36.24
2018-08-07T14:01:59.451Z,35.43
2018-08-07T14:04:28.115Z,34.89
2018-08-07T14:06:56.687Z,34.97
2018-08-07T14:09:25.155Z,34.42
2018-08-07T14:11:53.649Z,34.07
2018-08-07T14:14:22.167Z,33.70
2018-08-07T14:16:50.663Z,33.39
2018-08-07T14:19:19.998Z,33.43
2018-08-07T14:21:48.587Z,33.46
2018-08-07T14:24:17.015Z,33.44
2018-08-07T14:26:46.091Z,33.24
2018-08-07T14:29:14.585Z,33.04
2018-08-07T14:31:43.017Z,33.23
2018-08-07T14:34:11.683Z,33.42
2018-08-07T14:36:40.235Z,33.41
2018-08-07T14:39:10.076Z,33.73
2018-08-07T14:41:38.898Z,34.11
2018-08-07T14:44:07.487Z,33.86
2018-08-07T14:46:36.055Z,33.94
2018-08-07T14:49:04.807Z,34.02
2018-08-07T14:51:33.299Z,34.12
2018-08-07T14:54:01.852Z,34.22
2018-08-07T14:56:30.323Z,34.23
2018-08-07T14:58:58.864Z,34.34
2018-08-07T15:01:27.439Z,34.54
2018-08-07T15:03:56.501Z,34.26
2018-08-07T15:06:25.083Z,33.97
2018-08-07T15:08:53.527Z,33.85
2018-08-07T15:11:21.946Z,33.77
2018-08-07T15:13:50.523Z,33.68
2018-08-07T15:16:19.134Z,33.71
2018-08-07T15:18:47.636Z,33.60
2018-08-07T15:21:16.076Z,33.84
2018-08-07T15:23:44.559Z,33.80
2018-08-07T15:26:13.538Z,34.04
2018-08-07T15:28:41.959Z,34.03
2018-08-07T15:31:10.499Z,34.18
2018-08-07T15:33:39.360Z,34.15
2018-08-07T15:36:07.847Z,34.03
2018-08-07T15:38:36.331Z,34.09
2018-08-07T15:41:04.787Z,34.08
2018-08-07T15:43:33.250Z,34.08
2018-08-07T15:46:02.303Z,34.35
2018-08-07T15:48:31.104Z,34.46
2018-08-07T15:50:59.648Z,34.30
2018-08-07T15:53:28.119Z,34.01
2018-08-07T15:55:56.727Z,34.23
2018-08-07T15:58:25.101Z,34.26
2018-08-07T16:00:53.603Z,34.15
2018-08-07T16:03:22.278Z,34.24
2018-08-07T16:05:50.715Z,33.97
2018-08-07T16:08:19.239Z,33.90
2018-08-07T16:10:47.732Z,33.84
2018-08-07T16:13:16.159Z,33.90
2018-08-07T16:15:44.576Z,33.75
2018-08-07T16:18:13.059Z,33.75
2018-08-07T16:20:41.483Z,33.92
2018-08-07T16:23:09.967Z,33.90
2018-08-07T16:25:38.494Z,33.77
2018-08-07T16:28:07.063Z,33.90
2018-08-07T16:30:35.615Z,33.90
2018-08-07T16:33:04.820Z,34.14
2018-08-07T16:35:33.313Z,33.99
2018-08-07T16:38:01.935Z,33.83
2018-08-07T16:40:30.475Z,33.70
2018-08-07T16:42:58.859Z,33.68
2018-08-07T16:45:27.313Z,33.72
2018-08-07T16:47:55.902Z,33.72
2018-08-07T16:50:27.535Z,33.84
2018-08-07T16:52:57.419Z,33.88
2018-08-07T16:55:27.443Z,33.84
2018-08-07T16:57:55.968Z,33.88
2018-08-07T17:00:24.739Z,33.95
2018-08-07T17:02:53.259Z,33.88
2018-08-07T17:05:21.841Z,33.85
2018-08-07T17:07:50.863Z,33.83
2018-08-07T17:10:22.975Z,33.91
2018-08-07T17:12:51.555Z,33.95
2018-08-07T17:15:20.145Z,33.89
2018-08-07T17:17:49.051Z,33.90
2018-08-07T17:20:19.212Z,34.03
2018-08-07T17:22:47.887Z,34.10
2018-08-07T17:25:17.493Z,33.83
2018-08-07T17:27:46.947Z,33.72
2018-08-07T17:30:18.453Z,33.76
2018-08-07T17:32:47.611Z,33.69
2018-08-07T17:35:19.459Z,33.63
2018-08-07T17:37:49.647Z,33.80
2018-08-07T17:40:20.031Z,33.65
2018-08-07T17:42:48.460Z,33.45
2018-08-07T17:45:16.968Z,33.33
2018-08-07T17:47:45.499Z,33.58
2018-08-07T17:50:24.539Z,33.45
2018-08-07T17:52:54.208Z,33.35
2018-08-07T17:55:22.680Z,33.21
2018-08-07T17:57:51.899Z,33.27
2018-08-07T18:00:22.855Z,33.16
2018-08-07T18:02:51.362Z,33.01
2018-08-07T18:05:19.852Z,33.01
2018-08-07T18:07:50.177Z,33.03
2018-08-07T18:10:20.106Z,32.94
2018-08-07T18:12:48.847Z,32.94
2018-08-07T18:15:18.605Z,32.86
2018-08-07T18:17:48.225Z,32.95
2018-08-07T18:20:20.013Z,32.93
2018-08-07T18:22:48.643Z,32.94
2018-08-07T18:25:17.235Z,32.76
2018-08-07T18:27:45.709Z,32.48
2018-08-07T18:30:16.194Z,32.28
2018-08-07T18:32:45.237Z,32.04
2018-08-07T18:35:16.819Z,31.73
2018-08-07T18:37:45.495Z,31.65
2018-08-07T18:40:14.326Z,31.40
2018-08-07T18:42:43.004Z,31.27
2018-08-07T18:45:13.168Z,31.29
2018-08-07T18:47:42.751Z,31.47
2018-08-07T18:50:13.364Z,31.49
2018-08-07T18:52:42.558Z,31.50
2018-08-07T18:55:13.093Z,31.35
2018-08-07T18:57:42.768Z,31.26
2018-08-07T19:00:14.252Z,30.94
2018-08-07T19:02:42.925Z,30.85
2018-08-07T19:05:13.741Z,30.81
2018-08-07T19:07:42.421Z,30.83
2018-08-07T19:10:12.041Z,30.62
2018-08-07T19:12:40.897Z,30.27
2018-08-07T19:15:11.265Z,29.93
2018-08-07T19:17:40.629Z,29.61
2018-08-07T19:20:10.986Z,29.87
2018-08-07T19:22:40.567Z,29.87
2018-08-07T19:25:10.875Z,29.83
2018-08-07T19:27:40.196Z,29.86
2018-08-07T19:30:10.927Z,29.82
2018-08-07T19:32:40.161Z,29.70
2018-08-07T19:35:10.412Z,29.09
2018-08-07T19:37:39.434Z,29.01
2018-08-07T19:40:10.290Z,28.74
2018-08-07T19:42:39.279Z,28.65
2018-08-07T19:45:10.248Z,28.68
2018-08-07T19:47:39.223Z,28.62
2018-08-07T19:50:09.627Z,28.41
2018-08-07T19:52:38.825Z,28.32
2018-08-07T19:55:09.606Z,28.35
2018-08-07T19:57:38.507Z,28.26
2018-08-07T20:00:14.960Z,28.29
2018-08-07T20:02:44.067Z,28.51
2018-08-07T20:05:13.064Z,28.65
2018-08-07T20:07:42.020Z,28.79
2018-08-07T20:10:11.939Z,28.80
2018-08-07T20:12:41.333Z,28.86
2018-08-07T20:15:13.121Z,28.84
2018-08-07T20:17:41.757Z,28.86
2018-08-07T20:20:10.801Z,28.85
2018-08-07T20:22:39.532Z,28.66
2018-08-07T20:25:09.724Z,28.36
2018-08-07T20:27:38.417Z,28.42
2018-08-07T20:30:09.845Z,28.59
2018-08-07T20:32:38.705Z,28.51
2018-08-07T20:35:07.656Z,28.52
2018-08-07T20:37:36.778Z,28.31
2018-08-07T20:40:09.667Z,28.32
2018-08-07T20:42:38.151Z,28.25
2018-08-07T20:45:07.049Z,28.46
2018-08-07T20:47:35.660Z,28.35
2018-08-07T20:50:04.955Z,28.33
2018-08-07T20:52:33.431Z,28.16
2018-08-07T20:55:01.898Z,28.04
2018-08-07T20:57:30.555Z,27.63
2018-08-07T20:59:59.107Z,27.71
2018-08-07T21:02:27.706Z,27.65
2018-08-07T21:04:56.207Z,27.85
2018-08-07T21:07:24.626Z,27.62
2018-08-07T21:09:53.504Z,27.77
2018-08-07T21:12:22.136Z,27.79
2018-08-07T21:14:50.582Z,27.85
2018-08-07T21:17:19.255Z,27.60
2018-08-07T21:19:47.931Z,27.26
2018-08-07T21:22:16.408Z,27.20
2018-08-07T21:24:44.788Z,27.22
2018-08-07T21:27:13.376Z,27.13
2018-08-07T21:29:41.927Z,27.01
2018-08-07T21:32:10.435Z,27.07
2018-08-07T21:34:39.303Z,27.18
2018-08-07T21:37:07.770Z,27.47
2018-08-07T21:39:36.239Z,27.31
2018-08-07T21:42:05.063Z,27.25
2018-08-07T21:44:33.519Z,27.25
2018-08-07T21:47:02.111Z,27.23
2018-08-07T21:49:30.662Z,27.37
2018-08-07T21:51:59.128Z,27.46
2018-08-07T21:54:27.599Z,27.58
2018-08-07T21:56:56.303Z,27.51
2018-08-07T21:59:24.776Z,27.49
2018-08-07T22:01:53.346Z,27.65
2018-08-07T22:04:22.054Z,27.73
2018-08-07T22:06:50.643Z,27.69
2018-08-07T22:09:19.088Z,27.80
2018-08-07T22:11:47.595Z,27.86
2018-08-07T22:14:16.049Z,27.82
2018-08-07T22:16:44.487Z,27.98
2018-08-07T22:19:13.039Z,27.89
2018-08-07T22:21:41.435Z,27.15
2018-08-07T22:24:09.909Z,26.86
2018-08-07T22:26:38.498Z,27.13
2018-08-07T22:29:07.426Z,27.35
2018-08-07T22:31:36.076Z,27.39
2018-08-07T22:34:04.644Z,27.41
2018-08-07T22:36:33.122Z,27.30
2018-08-07T22:39:01.651Z,27.35
2018-08-07T22:41:30.283Z,27.31
2018-08-07T22:43:58.743Z,27.35
2018-08-07T22:46:27.231Z,27.14
2018-08-07T22:48:55.718Z,26.81
2018-08-07T22:51:24.130Z,26.65
2018-08-07T22:53:52.626Z,26.50
2018-08-07T22:56:21.159Z,26.25
2018-08-07T22:58:49.611Z,26.35
2018-08-07T23:01:18.059Z,26.44
2018-08-07T23:03:46.899Z,26.62
2018-08-07T23:06:15.388Z,26.47
2018-08-07T23:08:43.772Z,26.60
2018-08-07T23:11:12.422Z,26.77
2018-08-07T23:13:40.967Z,26.83
2018-08-07T23:16:09.482Z,26.87
2018-08-07T23:18:38.111Z,27.04
2018-08-07T23:21:06.648Z,27.20
2018-08-07T23:23:35.126Z,27.29
2018-08-07T23:26:04.012Z,27.31
2018-08-07T23:28:32.567Z,27.28
2018-08-07T23:31:01.019Z,27.14
2018-08-07T23:33:29.543Z,27.48
2018-08-07T23:35:58.027Z,27.71
2018-08-07T23:38:26.498Z,27.66
2018-08-07T23:40:55.059Z,27.95
2018-08-07T23:43:23.587Z,27.82
2018-08-07T23:45:52.123Z,27.88
2018-08-07T23:48:20.595Z,27.65
2018-08-07T23:50:49.134Z,27.16
2018-08-07T23:53:17.554Z,26.91
2018-08-07T23:55:46.211Z,26.87
2018-08-07T23:58:50.412Z,26.91
